EAG5501 GOBD-GQNO
Flight info
| Callsign | EAG5501 |
|---|---|
| Flight time | 0h 38m |
| Altitude | 27000 |
| Route | BIKIS1B BIKIS BIKIS1V |
| Aircraft | A321/M-SDE3FGHIRWY/LB1 |
Departure
| Time | 2026-04-27 19:57 |
|---|---|
| Airport | Blaise Diagne International Airport (GOBD) |
Arrival
| Time | 2026-04-27 20:35 |
|---|---|
| Airport | Nouakchott–Oumtounsy International Airport (GQNO) |
| Time | Latitude | Longitude | Altitude | Speed | Heading |
|---|---|---|---|---|---|
| 2026-04-27 19:50 | 14.67023 | -17.06924 | 296 ft | 4 kts | 90° |
| 2026-04-27 19:50 | 14.67023 | -17.06952 | 296 ft | 4 kts | 90° |
| 2026-04-27 19:50 | 14.67023 | -17.06975 | 296 ft | 0 kts | 91° |
| 2026-04-27 19:52 | 14.67013 | -17.06971 | 294 ft | 4 kts | 176° |
| 2026-04-27 19:52 | 14.66941 | -17.06975 | 292 ft | 13 kts | 180° |
| 2026-04-27 19:52 | 14.66858 | -17.06976 | 292 ft | 11 kts | 179° |
| 2026-04-27 19:53 | 14.66683 | -17.06989 | 294 ft | 16 kts | 217° |
| 2026-04-27 19:53 | 14.66631 | -17.07077 | 299 ft | 13 kts | 214° |
| 2026-04-27 19:53 | 14.66549 | -17.07086 | 293 ft | 12 kts | 178° |
| 2026-04-27 19:54 | 14.66469 | -17.07084 | 292 ft | 11 kts | 179° |
| 2026-04-27 19:54 | 14.66392 | -17.07092 | 295 ft | 14 kts | 206° |
| 2026-04-27 19:54 | 14.66422 | -17.07192 | 294 ft | 21 kts | 329° |
| 2026-04-27 19:54 | 14.66482 | -17.07278 | 293 ft | 10 kts | 225° |
| 2026-04-27 19:55 | 14.66401 | -17.07282 | 292 ft | 19 kts | 179° |
| 2026-04-27 19:55 | 14.66212 | -17.07277 | 289 ft | 34 kts | 182° |
| 2026-04-27 19:55 | 14.66049 | -17.07292 | 285 ft | 4 kts | 146° |
| 2026-04-27 19:55 | 14.66054 | -17.07279 | 288 ft | 2 kts | 56° |
| 2026-04-27 19:56 | 14.66116 | -17.07273 | 292 ft | 26 kts | 360° |
| 2026-04-27 19:56 | 14.66591 | -17.07277 | 297 ft | 107 kts | 359° |
| 2026-04-27 19:56 | 14.67563 | -17.07287 | 299 ft | 169 kts | 359° |
| 2026-04-27 19:56 | 14.68810 | -17.07306 | 791 ft | 186 kts | 358° |
| 2026-04-27 19:57 | 14.70116 | -17.07310 | 1566 ft | 186 kts | 2° |
| 2026-04-27 19:57 | 14.71401 | -17.07310 | 2068 ft | 188 kts | 0° |
| 2026-04-27 19:57 | 14.72774 | -17.07322 | 2207 ft | 205 kts | 0° |
| 2026-04-27 19:57 | 14.74263 | -17.07340 | 2324 ft | 223 kts | 359° |
| 2026-04-27 19:58 | 14.75895 | -17.07360 | 2476 ft | 247 kts | 359° |
| 2026-04-27 19:58 | 14.77652 | -17.07380 | 2967 ft | 256 kts | 359° |
| 2026-04-27 19:58 | 14.79462 | -17.07397 | 3490 ft | 263 kts | 359° |
| 2026-04-27 19:58 | 14.81310 | -17.07413 | 4085 ft | 266 kts | 357° |
| 2026-04-27 19:59 | 14.83163 | -17.07429 | 4754 ft | 266 kts | 357° |
| 2026-04-27 19:59 | 14.84982 | -17.07444 | 5521 ft | 258 kts | 356° |
| 2026-04-27 19:59 | 14.86760 | -17.07458 | 6335 ft | 254 kts | 356° |
| 2026-04-27 19:59 | 14.88528 | -17.07477 | 6893 ft | 256 kts | 358° |
| 2026-04-27 20:00 | 14.90344 | -17.07498 | 7435 ft | 259 kts | 356° |
| 2026-04-27 20:00 | 14.92138 | -17.07519 | 7928 ft | 264 kts | 356° |
| 2026-04-27 20:00 | 14.93990 | -17.07539 | 8457 ft | 268 kts | 357° |
| 2026-04-27 20:00 | 14.95866 | -17.07560 | 8959 ft | 273 kts | 357° |
| 2026-04-27 20:01 | 14.97784 | -17.07581 | 9469 ft | 277 kts | 358° |
| 2026-04-27 20:01 | 14.99722 | -17.07599 | 10009 ft | 280 kts | 357° |
| 2026-04-27 20:01 | 15.01675 | -17.07617 | 10540 ft | 281 kts | 356° |
| 2026-04-27 20:01 | 15.03635 | -17.07634 | 11093 ft | 282 kts | 356° |
| 2026-04-27 20:02 | 15.05607 | -17.07649 | 11640 ft | 284 kts | 356° |
| 2026-04-27 20:02 | 15.07584 | -17.07665 | 12202 ft | 285 kts | 355° |
| 2026-04-27 20:02 | 15.09571 | -17.07680 | 12751 ft | 287 kts | 355° |
| 2026-04-27 20:02 | 15.11575 | -17.07701 | 13288 ft | 289 kts | 355° |
| 2026-04-27 20:03 | 15.13590 | -17.07723 | 13830 ft | 291 kts | 354° |
| 2026-04-27 20:03 | 15.15622 | -17.07744 | 14302 ft | 293 kts | 355° |
| 2026-04-27 20:03 | 15.17697 | -17.07765 | 14535 ft | 306 kts | 355° |
| 2026-04-27 20:03 | 15.19886 | -17.07793 | 14660 ft | 322 kts | 355° |
| 2026-04-27 20:04 | 15.22189 | -17.07819 | 14782 ft | 339 kts | 355° |
| 2026-04-27 20:04 | 15.24597 | -17.07844 | 14901 ft | 354 kts | 355° |
| 2026-04-27 20:04 | 15.27115 | -17.07869 | 15019 ft | 369 kts | 356° |
| 2026-04-27 20:04 | 15.28869 | -17.07886 | 15097 ft | 378 kts | 356° |
| 2026-04-27 20:05 | 15.32437 | -17.07882 | 15255 ft | 397 kts | 0° |
| 2026-04-27 20:05 | 15.35229 | -17.07491 | 15380 ft | 412 kts | 9° |
| 2026-04-27 20:05 | 15.38026 | -17.06661 | 15506 ft | 424 kts | 14° |
| 2026-04-27 20:05 | 15.40876 | -17.05744 | 15615 ft | 433 kts | 14° |
| 2026-04-27 20:06 | 15.43786 | -17.04821 | 15799 ft | 440 kts | 14° |
| 2026-04-27 20:06 | 15.46722 | -17.03898 | 16110 ft | 443 kts | 14° |
| 2026-04-27 20:06 | 15.49682 | -17.02971 | 16445 ft | 445 kts | 14° |
| 2026-04-27 20:06 | 15.52651 | -17.02040 | 16786 ft | 447 kts | 14° |
| 2026-04-27 20:07 | 15.55645 | -17.01100 | 17123 ft | 449 kts | 14° |
| 2026-04-27 20:07 | 15.58641 | -17.00157 | 17456 ft | 451 kts | 14° |
| 2026-04-27 20:07 | 15.61651 | -16.99210 | 17796 ft | 453 kts | 14° |
| 2026-04-27 20:07 | 15.64676 | -16.98256 | 18133 ft | 455 kts | 14° |
| 2026-04-27 20:08 | 15.67712 | -16.97296 | 18432 ft | 457 kts | 14° |
| 2026-04-27 20:08 | 15.70764 | -16.96330 | 18715 ft | 459 kts | 14° |
| 2026-04-27 20:08 | 15.73826 | -16.95363 | 18990 ft | 461 kts | 14° |
| 2026-04-27 20:08 | 15.76857 | -16.94406 | 19251 ft | 462 kts | 14° |
| 2026-04-27 20:09 | 15.79942 | -16.93431 | 19556 ft | 463 kts | 14° |
| 2026-04-27 20:09 | 15.82962 | -16.92474 | 20569 ft | 443 kts | 14° |
| 2026-04-27 20:09 | 15.85845 | -16.91556 | 21684 ft | 423 kts | 13° |
| 2026-04-27 20:09 | 15.88598 | -16.90678 | 22851 ft | 403 kts | 13° |
| 2026-04-27 20:10 | 15.91207 | -16.89845 | 23934 ft | 382 kts | 12° |
| 2026-04-27 20:10 | 15.93679 | -16.89056 | 24822 ft | 365 kts | 12° |
| 2026-04-27 20:10 | 15.96094 | -16.88291 | 25351 ft | 361 kts | 11° |
| 2026-04-27 20:10 | 15.98498 | -16.87535 | 25705 ft | 361 kts | 11° |
| 2026-04-27 20:11 | 16.00907 | -16.86778 | 26020 ft | 362 kts | 11° |
| 2026-04-27 20:11 | 16.03327 | -16.86015 | 26344 ft | 363 kts | 11° |
| 2026-04-27 20:11 | 16.05749 | -16.85251 | 26622 ft | 365 kts | 11° |
| 2026-04-27 20:11 | 16.08148 | -16.84492 | 26889 ft | 367 kts | 11° |
| 2026-04-27 20:12 | 16.10618 | -16.83713 | 26970 ft | 375 kts | 11° |
| 2026-04-27 20:12 | 16.12321 | -16.83178 | 26999 ft | 382 kts | 11° |
| 2026-04-27 20:12 | 16.15747 | -16.82099 | 26995 ft | 395 kts | 11° |
| 2026-04-27 20:12 | 16.18411 | -16.81258 | 26997 ft | 404 kts | 11° |
| 2026-04-27 20:13 | 16.21131 | -16.80395 | 26998 ft | 414 kts | 11° |
| 2026-04-27 20:13 | 16.23919 | -16.79504 | 26997 ft | 423 kts | 12° |
| 2026-04-27 20:13 | 16.26757 | -16.78591 | 26997 ft | 432 kts | 13° |
| 2026-04-27 20:13 | 16.29591 | -16.77391 | 26996 ft | 446 kts | 20° |
| 2026-04-27 20:14 | 16.32411 | -16.75986 | 26996 ft | 454 kts | 20° |
| 2026-04-27 20:14 | 16.35281 | -16.74554 | 26988 ft | 462 kts | 21° |
| 2026-04-27 20:14 | 16.38208 | -16.73097 | 26996 ft | 470 kts | 20° |
| 2026-04-27 20:14 | 16.41183 | -16.71615 | 26998 ft | 477 kts | 20° |
| 2026-04-27 20:15 | 16.44194 | -16.70116 | 26995 ft | 484 kts | 20° |
| 2026-04-27 20:15 | 16.47261 | -16.68591 | 26992 ft | 489 kts | 20° |
| 2026-04-27 20:15 | 16.50338 | -16.67060 | 26993 ft | 491 kts | 20° |
| 2026-04-27 20:15 | 16.53419 | -16.65525 | 26989 ft | 491 kts | 20° |
| 2026-04-27 20:16 | 16.56503 | -16.63986 | 26990 ft | 492 kts | 21° |
| 2026-04-27 20:16 | 16.58543 | -16.62966 | 26994 ft | 492 kts | 21° |
| 2026-04-27 20:16 | 16.62669 | -16.60905 | 26988 ft | 492 kts | 21° |
| 2026-04-27 20:16 | 16.64717 | -16.59882 | 26987 ft | 492 kts | 21° |
| 2026-04-27 20:17 | 16.67807 | -16.58341 | 26990 ft | 492 kts | 20° |
| 2026-04-27 20:17 | 16.70895 | -16.56801 | 26988 ft | 492 kts | 20° |
| 2026-04-27 20:17 | 16.73994 | -16.55255 | 27000 ft | 492 kts | 20° |
| 2026-04-27 20:17 | 16.77079 | -16.53716 | 27000 ft | 492 kts | 20° |
| 2026-04-27 20:18 | 16.80165 | -16.52175 | 26998 ft | 492 kts | 20° |
| 2026-04-27 20:18 | 16.83258 | -16.50630 | 26992 ft | 492 kts | 20° |
| 2026-04-27 20:18 | 16.86342 | -16.49086 | 27000 ft | 492 kts | 20° |
| 2026-04-27 20:18 | 16.89432 | -16.47539 | 26994 ft | 492 kts | 20° |
| 2026-04-27 20:19 | 16.92515 | -16.46001 | 26996 ft | 492 kts | 20° |
| 2026-04-27 20:19 | 16.95617 | -16.44453 | 26989 ft | 492 kts | 20° |
| 2026-04-27 20:19 | 16.98669 | -16.42926 | 26979 ft | 492 kts | 20° |
| 2026-04-27 20:19 | 17.01752 | -16.41377 | 26977 ft | 492 kts | 20° |
| 2026-04-27 20:20 | 17.04841 | -16.39824 | 26970 ft | 492 kts | 20° |
| 2026-04-27 20:20 | 17.07939 | -16.38270 | 26436 ft | 493 kts | 20° |
| 2026-04-27 20:20 | 17.11073 | -16.36703 | 25076 ft | 505 kts | 21° |
| 2026-04-27 20:20 | 17.14268 | -16.35108 | 23860 ft | 513 kts | 22° |
| 2026-04-27 20:21 | 17.17497 | -16.33491 | 22957 ft | 512 kts | 22° |
| 2026-04-27 20:21 | 17.20671 | -16.31891 | 22308 ft | 503 kts | 22° |
| 2026-04-27 20:21 | 17.23805 | -16.30307 | 21644 ft | 496 kts | 22° |
| 2026-04-27 20:21 | 17.26898 | -16.28745 | 20959 ft | 490 kts | 22° |
| 2026-04-27 20:22 | 17.29958 | -16.27201 | 20283 ft | 484 kts | 23° |
| 2026-04-27 20:22 | 17.32968 | -16.25685 | 19608 ft | 478 kts | 23° |
| 2026-04-27 20:22 | 17.35954 | -16.24185 | 18973 ft | 472 kts | 23° |
| 2026-04-27 20:22 | 17.38898 | -16.22707 | 18342 ft | 467 kts | 23° |
| 2026-04-27 20:23 | 17.41812 | -16.21242 | 17635 ft | 462 kts | 23° |
| 2026-04-27 20:23 | 17.44700 | -16.19789 | 16895 ft | 458 kts | 23° |
| 2026-04-27 20:23 | 17.47559 | -16.18349 | 16181 ft | 454 kts | 23° |
| 2026-04-27 20:23 | 17.50396 | -16.16920 | 15479 ft | 451 kts | 23° |
| 2026-04-27 20:24 | 17.53213 | -16.15502 | 14796 ft | 448 kts | 23° |
| 2026-04-27 20:24 | 17.56013 | -16.14093 | 14107 ft | 445 kts | 23° |
| 2026-04-27 20:24 | 17.58795 | -16.12693 | 13396 ft | 442 kts | 22° |
| 2026-04-27 20:24 | 17.61545 | -16.11308 | 12944 ft | 432 kts | 23° |
| 2026-04-27 20:25 | 17.64176 | -16.09977 | 12807 ft | 415 kts | 22° |
| 2026-04-27 20:25 | 17.66725 | -16.08684 | 12680 ft | 399 kts | 22° |
| 2026-04-27 20:25 | 17.69181 | -16.07440 | 12546 ft | 385 kts | 22° |
| 2026-04-27 20:25 | 17.71546 | -16.06242 | 12427 ft | 371 kts | 22° |
| 2026-04-27 20:26 | 17.73834 | -16.05085 | 12286 ft | 359 kts | 22° |
| 2026-04-27 20:26 | 17.76046 | -16.03969 | 12184 ft | 347 kts | 22° |
| 2026-04-27 20:26 | 17.78183 | -16.02891 | 12052 ft | 336 kts | 21° |
| 2026-04-27 20:26 | 17.80257 | -16.01841 | 11583 ft | 327 kts | 21° |
| 2026-04-27 20:27 | 17.82296 | -16.00810 | 10859 ft | 324 kts | 21° |
| 2026-04-27 20:27 | 17.84329 | -15.99784 | 10136 ft | 321 kts | 21° |
| 2026-04-27 20:27 | 17.86336 | -15.98769 | 9369 ft | 319 kts | 21° |
| 2026-04-27 20:27 | 17.88322 | -15.97764 | 8649 ft | 314 kts | 21° |
| 2026-04-27 20:28 | 17.90274 | -15.96774 | 7967 ft | 309 kts | 21° |
| 2026-04-27 20:28 | 17.92186 | -15.95805 | 7335 ft | 302 kts | 20° |
| 2026-04-27 20:28 | 17.94062 | -15.94854 | 6704 ft | 296 kts | 20° |
| 2026-04-27 20:28 | 17.95285 | -15.94234 | 6349 ft | 290 kts | 20° |
| 2026-04-27 20:29 | 17.97693 | -15.93015 | 6001 ft | 292 kts | 21° |
| 2026-04-27 20:29 | 17.99510 | -15.92098 | 5681 ft | 288 kts | 22° |
| 2026-04-27 20:29 | 18.01321 | -15.91181 | 5296 ft | 286 kts | 22° |
| 2026-04-27 20:29 | 18.03072 | -15.90290 | 5171 ft | 274 kts | 23° |
| 2026-04-27 20:30 | 18.04758 | -15.89433 | 5034 ft | 263 kts | 22° |
| 2026-04-27 20:30 | 18.06417 | -15.88657 | 4774 ft | 258 kts | 20° |
| 2026-04-27 20:30 | 18.08039 | -15.87960 | 4450 ft | 246 kts | 18° |
| 2026-04-27 20:30 | 18.09577 | -15.87316 | 4127 ft | 230 kts | 18° |
| 2026-04-27 20:31 | 18.11048 | -15.86714 | 3839 ft | 224 kts | 15° |
| 2026-04-27 20:31 | 18.12560 | -15.86464 | 3587 ft | 218 kts | 358° |
| 2026-04-27 20:31 | 18.14035 | -15.86715 | 3314 ft | 214 kts | 340° |
| 2026-04-27 20:31 | 18.15363 | -15.87395 | 2997 ft | 212 kts | 330° |
| 2026-04-27 20:32 | 18.16632 | -15.88178 | 2708 ft | 212 kts | 330° |
| 2026-04-27 20:32 | 18.17884 | -15.88950 | 2432 ft | 210 kts | 331° |
| 2026-04-27 20:32 | 18.19141 | -15.89719 | 2161 ft | 208 kts | 330° |
| 2026-04-27 20:32 | 18.20386 | -15.90480 | 1900 ft | 205 kts | 330° |
| 2026-04-27 20:33 | 18.21616 | -15.91231 | 1642 ft | 203 kts | 329° |
| 2026-04-27 20:33 | 18.22787 | -15.91946 | 1381 ft | 186 kts | 329° |
| 2026-04-27 20:33 | 18.23861 | -15.92602 | 1163 ft | 168 kts | 329° |
| 2026-04-27 20:33 | 18.24809 | -15.93182 | 943 ft | 150 kts | 329° |
| 2026-04-27 20:34 | 18.25682 | -15.93716 | 757 ft | 141 kts | 329° |
| 2026-04-27 20:34 | 18.26523 | -15.94230 | 590 ft | 138 kts | 329° |
| 2026-04-27 20:34 | 18.27342 | -15.94731 | 407 ft | 135 kts | 329° |
| 2026-04-27 20:34 | 18.28151 | -15.95226 | 249 ft | 134 kts | 328° |
| 2026-04-27 20:35 | 18.28950 | -15.95714 | 90 ft | 131 kts | 330° |
| 2026-04-27 20:35 | 18.29745 | -15.96177 | 18 ft | 126 kts | 327° |
| 2026-04-27 20:35 | 18.30341 | -15.96537 | 18 ft | 70 kts | 330° |
| 2026-04-27 20:35 | 18.30629 | -15.96710 | 17 ft | 36 kts | 330° |
| 2026-04-27 20:36 | 18.30832 | -15.96832 | 18 ft | 31 kts | 330° |
| 2026-04-27 20:36 | 18.31003 | -15.96935 | 19 ft | 19 kts | 331° |
| 2026-04-27 20:36 | 18.31064 | -15.96899 | 18 ft | 10 kts | 55° |
| 2026-04-27 20:36 | 18.31077 | -15.96821 | 16 ft | 11 kts | 96° |
| 2026-04-27 20:37 | 18.31098 | -15.96751 | 15 ft | 10 kts | 61° |
| 2026-04-27 20:37 | 18.31097 | -15.96696 | 15 ft | 7 kts | 100° |
| 2026-04-27 20:37 | 18.31106 | -15.96666 | 15 ft | 0 kts | 63° |